Weather at Raivavae Airport

Public forecast

Using degrees Celsius for public forecast. Weather courtesy of forecast.io.

Closest aviation weather report (METAR) to Raivavae Airport

Closest report is Mauke Airport, 583.9 nm (1,081.4 km) WNW. Retrieved 2022/01/24 09:00 UTC (51 minutes ago):

NCMK 240900Z AUTO 33008KT //// ////// ///// Q1009

Closest aviation forecast (TAF) to Raivavae Airport

Closest forecast is Faa'a International Airport, 395.5 nm (732.5 km) NNW. Retrieved 2022/01/24 06:21 UTC (4 hours ago):

TAF NTAA 240500Z 2406/2512 07008KT 9999 FEW020 PROB30 TEMPO 2507/2509 05015G25KT 4000 SHRA SCT018 BKN045 BECMG 2418/2420 05013KT PROB40 TEMPO 2500/2512 05015G25KT 3000 SHRA SCT018 BKN045 BECMG 2503/2505 VRB05KT